createdAt,value
2019-01-11T00:02:23.181Z,37.87
2019-01-11T00:04:53.846Z,38.87
2019-01-11T00:07:23.127Z,32.43
2019-01-11T00:09:52.220Z,34.13
2019-01-11T00:12:21.714Z,36.67
2019-01-11T00:14:51.665Z,34.93
2019-01-11T00:17:21.263Z,34.80
2019-01-11T00:19:50.472Z,33.93
2019-01-11T00:22:19.953Z,33.47
2019-01-11T00:24:49.205Z,35.43
2019-01-11T00:27:18.442Z,33.67
2019-01-11T00:29:48.161Z,35.43
2019-01-11T00:32:17.409Z,36.30
2019-01-11T00:34:46.564Z,32.50
2019-01-11T00:37:16.312Z,34.18
2019-01-11T00:39:45.723Z,32.27
2019-01-11T00:42:14.980Z,32.33
2019-01-11T00:44:44.440Z,32.60
2019-01-11T00:47:15.145Z,37.37
2019-01-11T00:49:45.557Z,33.20
2019-01-11T00:52:14.788Z,34.27
2019-01-11T00:54:44.348Z,35.27
2019-01-11T00:57:13.515Z,31.03
2019-01-11T00:59:43.191Z,34.30
2019-01-11T01:02:13.407Z,34.53
2019-01-11T01:04:42.592Z,32.30
2019-01-11T01:07:12.353Z,33.07
2019-01-11T01:09:41.528Z,33.70
2019-01-11T01:12:11.778Z,29.70
2019-01-11T01:14:41.422Z,32.30
2019-01-11T01:17:11.028Z,32.23
2019-01-11T01:19:40.180Z,30.83
2019-01-11T01:22:11.372Z,34.67
2019-01-11T01:24:40.534Z,30.37
2019-01-11T01:27:09.954Z,30.10
2019-01-11T01:29:39.483Z,31.20
2019-01-11T01:32:08.702Z,33.03
2019-01-11T01:34:39.685Z,33.80
2019-01-11T01:37:09.359Z,33.40
2019-01-11T01:39:38.523Z,35.20
2019-01-11T01:42:07.737Z,33.60
2019-01-11T01:44:36.891Z,30.77
2019-01-11T01:47:06.220Z,34.83
2019-01-11T01:49:35.392Z,36.33
2019-01-11T01:52:05.036Z,36.90
2019-01-11T01:54:34.957Z,38.70
2019-01-11T01:57:04.160Z,34.70
2019-01-11T01:59:33.367Z,33.80
2019-01-11T02:02:02.609Z,35.97
2019-01-11T02:04:32.076Z,38.83
2019-01-11T02:07:01.239Z,34.80
2019-01-11T02:09:30.769Z,36.13
2019-01-11T02:11:59.946Z,37.23
2019-01-11T02:14:29.884Z,33.87
2019-01-11T02:16:59.385Z,36.80
2019-01-11T02:19:32.883Z,38.00
2019-01-11T02:21:59.833Z,36.67
2019-01-11T02:24:29.884Z,36.57
2019-01-11T02:26:59.159Z,37.70
2019-01-11T02:29:28.312Z,37.73
2019-01-11T02:31:57.494Z,37.10
2019-01-11T02:34:28.900Z,35.77
2019-01-11T02:36:58.073Z,37.30
2019-01-11T02:39:27.457Z,39.10
2019-01-11T02:41:56.684Z,37.50
2019-01-11T02:44:25.947Z,38.67
2019-01-11T02:46:55.613Z,38.60
2019-01-11T02:49:24.827Z,41.40
2019-01-11T02:51:54.053Z,38.80
2019-01-11T02:54:23.650Z,41.07
2019-01-11T02:56:53.485Z,37.20
2019-01-11T02:59:22.637Z,41.23
2019-01-11T03:01:52.073Z,42.35
2019-01-11T03:04:21.268Z,39.90
2019-01-11T03:06:50.478Z,42.03
2019-01-11T03:09:19.649Z,41.40
2019-01-11T03:11:49.121Z,44.87
2019-01-11T03:14:18.639Z,39.73
2019-01-11T03:16:48.155Z,56.02
2019-01-11T03:19:18.982Z,40.37
2019-01-11T03:21:48.219Z,42.60
2019-01-11T03:24:18.128Z,40.87
2019-01-11T03:26:47.599Z,40.80
2019-01-11T03:29:17.162Z,49.63
2019-01-11T03:31:46.832Z,50.00
2019-01-11T03:34:16.298Z,46.87
2019-01-11T03:36:45.531Z,43.43
2019-01-11T03:39:15.342Z,43.47
2019-01-11T03:41:59.250Z,42.90
2019-01-11T03:44:28.589Z,47.70
2019-01-11T03:46:57.785Z,53.83
2019-01-11T03:49:27.339Z,44.63
2019-01-11T03:51:56.934Z,53.53
2019-01-11T03:54:26.426Z,44.53
2019-01-11T03:56:55.632Z,43.90
2019-01-11T03:59:25.185Z,46.20
2019-01-11T04:01:54.351Z,49.23
2019-01-11T04:04:23.545Z,43.47
2019-01-11T04:06:52.709Z,46.77
2019-01-11T04:09:22.362Z,47.70
2019-01-11T04:11:51.517Z,53.00
2019-01-11T04:14:20.779Z,51.67
2019-01-11T04:16:51.564Z,49.27
2019-01-11T04:19:20.755Z,57.50
2019-01-11T04:22:27.050Z,46.50
2019-01-11T04:25:15.376Z,50.70
2019-01-11T04:27:44.629Z,44.00
2019-01-11T04:30:16.971Z,51.20
2019-01-11T04:32:46.157Z,43.47
2019-01-11T04:35:15.418Z,46.57
2019-01-11T04:37:44.607Z,54.27
2019-01-11T04:40:15.346Z,57.93
2019-01-11T04:42:44.509Z,45.37
2019-01-11T04:45:13.982Z,47.87
2019-01-11T04:47:43.595Z,51.03
2019-01-11T04:50:16.310Z,57.90
2019-01-11T04:52:46.372Z,62.27
2019-01-11T04:55:16.767Z,58.05
2019-01-11T04:57:45.964Z,53.17
2019-01-11T05:00:18.505Z,70.40
2019-01-11T05:02:48.201Z,56.80
2019-01-11T05:05:17.626Z,76.07
2019-01-11T05:07:47.130Z,62.83
2019-01-11T05:10:18.177Z,51.90
2019-01-11T05:12:47.345Z,52.03
2019-01-11T05:15:17.088Z,57.47
2019-01-11T05:17:46.708Z,58.00
2019-01-11T05:20:17.422Z,61.73
2019-01-11T05:22:46.969Z,65.60
2019-01-11T05:25:16.822Z,75.37
2019-01-11T05:27:48.408Z,61.60
2019-01-11T05:30:18.860Z,58.45
2019-01-11T05:32:48.397Z,70.20
2019-01-11T05:35:17.636Z,81.27
2019-01-11T05:37:46.784Z,65.57
2019-01-11T05:40:18.439Z,66.90
2019-01-11T05:42:47.855Z,61.50
2019-01-11T05:45:18.259Z,61.33
2019-01-11T05:47:48.247Z,65.67
2019-01-11T05:50:23.927Z,68.43
2019-01-11T05:52:49.923Z,58.67
2019-01-11T05:55:38.364Z,70.43
2019-01-11T05:58:26.487Z,68.07
2019-01-11T06:00:55.675Z,72.67
2019-01-11T06:03:25.117Z,63.10
2019-01-11T06:05:54.256Z,63.77
2019-01-11T06:08:23.967Z,69.20
2019-01-11T06:10:53.159Z,69.60
2019-01-11T06:13:22.711Z,58.90
2019-01-11T06:15:51.979Z,66.57
2019-01-11T06:18:21.242Z,57.37
2019-01-11T06:20:51.309Z,63.93
2019-01-11T06:23:20.594Z,64.97
2019-01-11T06:25:49.720Z,67.30
2019-01-11T06:28:18.903Z,59.93
2019-01-11T06:30:48.252Z,66.23
2019-01-11T06:33:17.590Z,71.23
2019-01-11T06:35:46.811Z,60.70
2019-01-11T06:38:16.087Z,65.70
2019-01-11T06:40:45.284Z,57.20
2019-01-11T06:43:14.481Z,62.73
2019-01-11T06:45:43.657Z,64.90
2019-01-11T06:48:23.955Z,56.90
2019-01-11T06:50:53.143Z,56.30
2019-01-11T06:53:22.725Z,64.17
2019-01-11T06:55:52.301Z,60.90
2019-01-11T06:58:21.529Z,48.97
2019-01-11T07:00:50.696Z,56.37
2019-01-11T07:03:20.045Z,51.83
2019-01-11T07:05:49.589Z,64.67
2019-01-11T07:08:18.751Z,49.47
2019-01-11T07:10:48.342Z,50.70
2019-01-11T07:13:17.824Z,54.90
2019-01-11T07:15:47.134Z,49.93
2019-01-11T07:18:16.942Z,41.50
2019-01-11T07:20:46.586Z,43.90
2019-01-11T07:23:15.805Z,37.77
2019-01-11T07:25:45.083Z,41.47
2019-01-11T07:28:14.959Z,41.20
2019-01-11T07:31:03.090Z,39.27
2019-01-11T07:33:32.361Z,36.43
2019-01-11T07:36:08.839Z,38.07
2019-01-11T07:38:38.053Z,34.77
2019-01-11T07:41:08.671Z,32.23
2019-01-11T07:43:37.914Z,31.90
2019-01-11T07:46:07.952Z,30.70
2019-01-11T07:48:39.045Z,30.23
2019-01-11T07:51:08.265Z,26.27
2019-01-11T07:53:37.809Z,28.73
2019-01-11T07:56:07.089Z,28.90
2019-01-11T07:58:36.272Z,25.03
2019-01-11T08:01:27.084Z,26.20
2019-01-11T08:03:56.283Z,26.27
2019-01-11T08:06:25.708Z,26.43
2019-01-11T08:08:55.193Z,34.70
2019-01-11T08:11:24.397Z,22.27
2019-01-11T08:13:54.017Z,24.47
2019-01-11T08:16:23.435Z,24.60
2019-01-11T08:18:52.614Z,24.57
2019-01-11T08:21:22.098Z,24.20
2019-01-11T08:23:51.733Z,20.93
2019-01-11T08:26:20.988Z,21.57
2019-01-11T08:28:50.258Z,22.03
2019-01-11T08:31:19.429Z,24.90
2019-01-11T08:33:48.602Z,18.93
2019-01-11T08:36:18.183Z,20.00
2019-01-11T08:38:47.727Z,19.20
2019-01-11T08:41:17.226Z,18.63
2019-01-11T08:43:47.515Z,20.40
2019-01-11T08:46:17.170Z,22.83
2019-01-11T08:48:46.312Z,17.70
2019-01-11T08:51:15.535Z,20.00
2019-01-11T08:53:44.739Z,19.73
2019-01-11T08:56:16.232Z,17.40
2019-01-11T08:58:47.915Z,20.37
2019-01-11T09:01:17.452Z,17.33
2019-01-11T09:03:46.732Z,20.70
2019-01-11T09:06:15.959Z,21.07
2019-01-11T09:08:45.161Z,19.03
2019-01-11T09:11:14.340Z,18.67
2019-01-11T09:13:43.812Z,17.30
2019-01-11T09:16:13.280Z,21.87
2019-01-11T09:18:48.012Z,18.00
2019-01-11T09:21:17.441Z,16.20
2019-01-11T09:23:46.584Z,16.50
2019-01-11T09:26:16.071Z,15.03
2019-01-11T09:28:45.319Z,15.17
2019-01-11T09:31:15.064Z,14.93
2019-01-11T09:33:44.583Z,15.50
2019-01-11T09:36:13.851Z,16.67
2019-01-11T09:38:43.326Z,11.00
2019-01-11T09:41:12.512Z,15.07
2019-01-11T09:43:41.652Z,13.63
2019-01-11T09:46:11.943Z,17.77
2019-01-11T09:48:41.379Z,13.03
2019-01-11T09:51:15.648Z,12.20
2019-01-11T09:53:41.666Z,11.30
2019-01-11T09:56:10.833Z,11.90
2019-01-11T09:58:39.967Z,12.67
2019-01-11T10:01:09.233Z,14.20
2019-01-11T10:03:38.677Z,11.70
2019-01-11T10:06:08.120Z,12.67
2019-01-11T10:08:37.582Z,11.27
2019-01-11T10:11:07.087Z,11.03
2019-01-11T10:13:36.538Z,12.77
2019-01-11T10:16:05.743Z,9.63
2019-01-11T10:18:34.996Z,12.57
2019-01-11T10:21:04.169Z,13.27
2019-01-11T10:23:33.323Z,9.20
2019-01-11T10:26:02.540Z,10.33
2019-01-11T10:28:31.734Z,8.40
2019-01-11T10:31:01.654Z,11.10
2019-01-11T10:33:36.156Z,9.67
2019-01-11T10:36:02.365Z,9.13
2019-01-11T10:38:32.033Z,7.07
2019-01-11T10:41:01.243Z,7.90
2019-01-11T10:43:32.366Z,7.57
2019-01-11T10:46:03.260Z,8.10
2019-01-11T10:48:32.853Z,8.73
2019-01-11T10:51:03.438Z,7.60
2019-01-11T10:53:33.352Z,7.27
2019-01-11T10:56:02.562Z,8.93
2019-01-11T10:58:31.968Z,6.53
2019-01-11T11:01:01.481Z,9.97
2019-01-11T11:03:30.792Z,7.10
2019-01-11T11:06:00.402Z,6.97
2019-01-11T11:08:29.881Z,8.40
2019-01-11T11:11:00.468Z,7.27
2019-01-11T11:13:29.622Z,5.57
2019-01-11T11:16:00.480Z,6.63
2019-01-11T11:18:29.677Z,6.13
2019-01-11T11:20:59.855Z,5.90
2019-01-11T11:23:29.022Z,7.47
2019-01-11T11:25:58.440Z,7.20
2019-01-11T11:28:27.587Z,6.17
2019-01-11T11:30:57.789Z,9.73
2019-01-11T11:33:27.036Z,7.33
2019-01-11T11:35:56.522Z,11.70
2019-01-11T11:38:26.061Z,14.87
2019-01-11T11:40:57.782Z,15.47
2019-01-11T11:43:27.260Z,9.23
2019-01-11T11:45:56.465Z,10.80
2019-01-11T11:48:25.671Z,8.83
2019-01-11T11:50:55.092Z,8.03
2019-01-11T11:53:25.236Z,4.63
2019-01-11T11:55:54.560Z,6.27
2019-01-11T11:58:24.158Z,5.80
2019-01-11T12:00:53.740Z,5.80
2019-01-11T12:03:22.889Z,5.03
2019-01-11T12:05:52.418Z,6.50
2019-01-11T12:08:21.706Z,3.80
2019-01-11T12:10:51.220Z,5.20
2019-01-11T12:13:20.725Z,5.07
2019-01-11T12:15:50.676Z,5.10
2019-01-11T12:18:20.867Z,5.00
2019-01-11T12:20:50.035Z,5.60
2019-01-11T12:23:19.304Z,6.93
2019-01-11T12:25:49.386Z,3.77
2019-01-11T12:28:19.017Z,4.40
2019-01-11T12:30:48.942Z,5.10
2019-01-11T12:33:18.544Z,5.17
2019-01-11T12:35:48.203Z,5.97
2019-01-11T12:38:18.832Z,4.73
2019-01-11T12:40:48.644Z,12.23
2019-01-11T12:43:17.851Z,6.93
2019-01-11T12:45:47.368Z,9.47
2019-01-11T12:48:17.583Z,4.23
2019-01-11T12:50:46.985Z,3.63
2019-01-11T12:53:16.156Z,4.50
2019-01-11T12:55:45.788Z,8.77
2019-01-11T12:58:15.333Z,6.60
2019-01-11T13:00:44.482Z,4.93
2019-01-11T13:03:13.672Z,4.17
2019-01-11T13:05:42.878Z,3.70
2019-01-11T13:08:12.101Z,3.03
2019-01-11T13:10:41.599Z,1.90
2019-01-11T13:13:11.161Z,4.03
2019-01-11T13:15:40.363Z,2.80
2019-01-11T13:18:11.627Z,4.50
2019-01-11T13:20:41.327Z,5.53
2019-01-11T13:23:10.795Z,3.67
2019-01-11T13:25:40.314Z,3.90
2019-01-11T13:28:09.496Z,3.73
2019-01-11T13:30:38.988Z,5.53
2019-01-11T13:33:08.508Z,5.13
2019-01-11T13:35:37.680Z,5.60
2019-01-11T13:38:07.240Z,3.70
2019-01-11T13:40:36.406Z,4.17
2019-01-11T13:43:06.370Z,4.10
2019-01-11T13:45:35.567Z,3.77
2019-01-11T13:48:25.638Z,2.70
2019-01-11T13:50:56.305Z,1.53
2019-01-11T13:53:25.864Z,2.90
2019-01-11T13:55:55.579Z,2.30
2019-01-11T13:58:25.868Z,3.23
2019-01-11T14:00:55.057Z,3.10
2019-01-11T14:03:24.342Z,2.00
2019-01-11T14:05:53.703Z,1.87
2019-01-11T14:08:23.213Z,2.20
2019-01-11T14:10:53.146Z,3.37
2019-01-11T14:13:22.653Z,3.47
2019-01-11T14:15:52.275Z,2.80
2019-01-11T14:18:21.405Z,2.63
2019-01-11T14:20:51.406Z,3.40
2019-01-11T14:23:20.578Z,2.80
2019-01-11T14:25:50.140Z,2.53
2019-01-11T14:28:19.725Z,3.30
2019-01-11T14:30:48.887Z,2.77
2019-01-11T14:33:18.375Z,4.47
2019-01-11T14:35:47.582Z,4.20
2019-01-11T14:38:17.156Z,4.63
2019-01-11T14:40:46.559Z,3.60
2019-01-11T14:43:15.722Z,3.10
2019-01-11T14:45:45.614Z,3.20
2019-01-11T14:48:14.934Z,5.10
2019-01-11T14:50:46.128Z,3.90
2019-01-11T14:53:15.649Z,2.63
2019-01-11T14:55:45.315Z,3.17
2019-01-11T14:58:14.869Z,1.03
2019-01-11T15:00:44.056Z,1.53
2019-01-11T15:03:13.575Z,1.90
2019-01-11T15:05:43.258Z,1.97
2019-01-11T15:08:13.216Z,1.90
2019-01-11T15:10:42.709Z,3.20
2019-01-11T15:13:12.464Z,3.20
2019-01-11T15:15:42.162Z,2.60
2019-01-11T15:18:11.809Z,2.63
2019-01-11T15:20:41.337Z,3.10
2019-01-11T15:23:13.636Z,2.67
2019-01-11T15:25:41.821Z,2.87
2019-01-11T15:28:10.975Z,2.90
2019-01-11T15:30:40.539Z,3.33
2019-01-11T15:33:09.724Z,2.57
2019-01-11T15:35:38.892Z,4.40
2019-01-11T15:38:08.276Z,6.03
2019-01-11T15:40:38.415Z,5.50
2019-01-11T15:43:08.193Z,5.07
2019-01-11T15:45:37.477Z,3.20
2019-01-11T15:48:06.788Z,6.23
2019-01-11T15:51:01.116Z,5.07
2019-01-11T15:53:40.095Z,2.20
2019-01-11T15:56:11.184Z,4.07
2019-01-11T15:58:41.034Z,3.57
2019-01-11T16:01:10.537Z,2.97
2019-01-11T16:03:40.052Z,3.30
2019-01-11T16:06:31.464Z,3.77
2019-01-11T16:09:28.427Z,4.53
2019-01-11T16:12:04.283Z,5.07
2019-01-11T16:14:57.567Z,4.33
2019-01-11T16:17:27.305Z,5.87
2019-01-11T16:19:56.913Z,4.30
2019-01-11T16:22:27.982Z,4.43
2019-01-11T16:24:57.157Z,4.97
2019-01-11T16:27:26.933Z,4.50
2019-01-11T16:29:56.161Z,3.47
2019-01-11T16:32:26.737Z,5.30
2019-01-11T16:34:57.666Z,5.50
2019-01-11T16:37:27.176Z,4.83
2019-01-11T16:39:56.343Z,3.70
2019-01-11T16:42:28.236Z,4.87
2019-01-11T16:44:59.606Z,4.10
2019-01-11T16:47:28.945Z,5.50
2019-01-11T16:49:58.175Z,4.67
2019-01-11T16:52:27.721Z,7.27
2019-01-11T16:54:56.867Z,4.77
2019-01-11T16:57:26.109Z,2.97
2019-01-11T16:59:57.117Z,3.90
2019-01-11T17:02:26.318Z,8.90
2019-01-11T17:04:55.577Z,7.30
2019-01-11T17:07:24.719Z,6.80
2019-01-11T17:09:53.990Z,3.10
2019-01-11T17:12:23.401Z,3.20
2019-01-11T17:14:52.564Z,3.83
2019-01-11T17:17:21.705Z,3.20
2019-01-11T17:19:51.233Z,5.30
2019-01-11T17:22:21.052Z,4.90
2019-01-11T17:24:51.915Z,4.30
2019-01-11T17:27:21.952Z,5.73
2019-01-11T17:29:52.436Z,6.70
2019-01-11T17:32:22.459Z,4.43
2019-01-11T17:34:51.767Z,5.70
2019-01-11T17:37:20.945Z,3.40
2019-01-11T17:39:51.947Z,3.20
2019-01-11T17:42:21.202Z,2.60
2019-01-11T17:44:51.019Z,4.23
2019-01-11T17:47:20.207Z,3.40
2019-01-11T17:49:49.715Z,3.10
2019-01-11T17:52:18.939Z,3.03
2019-01-11T17:54:48.190Z,4.57
2019-01-11T17:57:17.356Z,3.80
2019-01-11T17:59:46.510Z,3.40
2019-01-11T18:02:15.891Z,6.00
2019-01-11T18:04:45.398Z,4.80
2019-01-11T18:07:14.593Z,4.37
2019-01-11T18:09:43.888Z,4.50
2019-01-11T18:12:19.840Z,4.60
2019-01-11T18:14:44.376Z,4.70
2019-01-11T18:17:13.749Z,6.23
2019-01-11T18:19:43.620Z,6.00
2019-01-11T18:22:12.792Z,5.97
2019-01-11T18:24:42.371Z,5.27
2019-01-11T18:27:11.904Z,5.30
2019-01-11T18:29:41.784Z,4.90
2019-01-11T18:32:11.471Z,6.03
2019-01-11T18:34:41.030Z,5.40
2019-01-11T18:37:10.208Z,5.57
2019-01-11T18:39:39.729Z,3.97
2019-01-11T18:42:10.470Z,5.63
2019-01-11T18:44:39.858Z,6.00
2019-01-11T18:47:09.411Z,5.43
2019-01-11T18:49:38.674Z,4.87
2019-01-11T18:52:08.001Z,4.97
2019-01-11T18:54:38.956Z,4.90
2019-01-11T18:57:10.420Z,5.10
2019-01-11T18:59:39.741Z,5.33
2019-01-11T19:02:08.949Z,4.63
2019-01-11T19:04:38.294Z,3.50
2019-01-11T19:07:07.675Z,4.13
2019-01-11T19:09:37.747Z,4.37
2019-01-11T19:12:07.176Z,3.57
2019-01-11T19:14:36.391Z,4.87
2019-01-11T19:17:05.580Z,3.70
2019-01-11T19:19:35.741Z,4.80
2019-01-11T19:22:05.315Z,3.97
2019-01-11T19:24:34.523Z,5.00
2019-01-11T19:27:04.167Z,4.70
2019-01-11T19:29:33.328Z,3.60
2019-01-11T19:32:02.497Z,5.03
2019-01-11T19:34:32.063Z,2.93
2019-01-11T19:37:01.291Z,3.07
2019-01-11T19:39:30.879Z,4.53
2019-01-11T19:42:00.776Z,4.07
2019-01-11T19:44:30.278Z,4.50
2019-01-11T19:46:59.806Z,3.43
2019-01-11T19:49:29.629Z,4.60
2019-01-11T19:51:58.916Z,3.70
2019-01-11T19:54:28.532Z,4.17
2019-01-11T19:56:58.286Z,4.25
2019-01-11T19:59:27.594Z,4.00
2019-01-11T20:01:58.266Z,5.37
2019-01-11T20:04:27.443Z,3.17
2019-01-11T20:06:56.786Z,3.70
2019-01-11T20:09:26.499Z,5.77
2019-01-11T20:11:56.296Z,5.80
2019-01-11T20:14:25.914Z,4.57
2019-01-11T20:16:55.523Z,6.40
2019-01-11T20:19:25.051Z,4.73
2019-01-11T20:21:54.320Z,3.57
2019-01-11T20:24:23.627Z,4.67
2019-01-11T20:26:53.029Z,4.00
2019-01-11T20:29:22.530Z,5.10
2019-01-11T20:31:51.738Z,3.50
2019-01-11T20:34:22.696Z,3.40
2019-01-11T20:37:05.335Z,3.70
2019-01-11T20:39:36.330Z,3.60
2019-01-11T20:42:05.865Z,4.07
2019-01-11T20:44:35.464Z,3.57
2019-01-11T20:47:04.825Z,3.55
2019-01-11T20:49:34.554Z,2.10
2019-01-11T20:52:03.703Z,4.17
2019-01-11T20:54:34.423Z,3.33
2019-01-11T20:57:03.627Z,2.83
2019-01-11T20:59:32.819Z,2.57
2019-01-11T21:02:02.415Z,3.20
2019-01-11T21:04:32.309Z,4.87
2019-01-11T21:07:01.493Z,4.63
2019-01-11T21:09:31.099Z,2.77
2019-01-11T21:12:00.293Z,2.27
2019-01-11T21:14:29.516Z,2.70
2019-01-11T21:16:58.649Z,3.20
2019-01-11T21:19:27.834Z,2.33
2019-01-11T21:21:57.316Z,2.70
2019-01-11T21:24:26.510Z,2.57
2019-01-11T21:26:55.702Z,2.50
2019-01-11T21:29:24.864Z,2.33
2019-01-11T21:31:54.095Z,2.53
2019-01-11T21:34:24.963Z,2.47
2019-01-11T21:36:54.428Z,2.30
2019-01-11T21:39:23.961Z,3.17
2019-01-11T21:41:53.359Z,3.27
2019-01-11T21:44:22.560Z,3.00
2019-01-11T21:46:51.698Z,4.00
2019-01-11T21:49:20.909Z,3.97
2019-01-11T21:51:50.060Z,4.17
2019-01-11T21:54:19.697Z,4.77
2019-01-11T21:56:49.208Z,4.13
2019-01-11T21:59:19.917Z,4.87
2019-01-11T22:01:50.748Z,3.47
2019-01-11T22:04:20.023Z,4.13
2019-01-11T22:06:49.422Z,4.50
2019-01-11T22:09:19.051Z,4.83
2019-01-11T22:11:48.567Z,5.57
2019-01-11T22:14:18.121Z,5.77
2019-01-11T22:16:47.691Z,5.00
2019-01-11T22:19:18.219Z,4.40
2019-01-11T22:21:47.558Z,3.63
2019-01-11T22:24:16.847Z,4.63
2019-01-11T22:26:46.649Z,3.90
2019-01-11T22:29:16.191Z,5.30
2019-01-11T22:31:46.077Z,2.93
2019-01-11T22:34:15.577Z,3.73
2019-01-11T22:36:44.778Z,4.17
2019-01-11T22:39:14.072Z,5.20
2019-01-11T22:41:43.599Z,6.63
2019-01-11T22:44:13.276Z,5.00
2019-01-11T22:46:42.474Z,4.00
2019-01-11T22:49:12.289Z,5.37
2019-01-11T22:51:41.466Z,4.50
2019-01-11T22:54:11.028Z,5.00
2019-01-11T22:56:40.241Z,4.13
2019-01-11T22:59:09.446Z,4.40
2019-01-11T23:02:01.804Z,5.27
2019-01-11T23:04:31.656Z,4.57
2019-01-11T23:07:18.953Z,4.20
2019-01-11T23:09:53.014Z,4.80
2019-01-11T23:12:50.459Z,4.63
2019-01-11T23:15:23.368Z,4.62
2019-01-11T23:18:05.574Z,3.63
2019-01-11T23:20:35.156Z,4.73
2019-01-11T23:23:04.361Z,3.83
2019-01-11T23:25:33.544Z,4.77
2019-01-11T23:28:03.080Z,4.67
2019-01-11T23:30:32.288Z,4.10
2019-01-11T23:33:01.886Z,4.43
2019-01-11T23:35:31.479Z,4.10
2019-01-11T23:38:00.800Z,4.33
2019-01-11T23:40:30.284Z,4.20
2019-01-11T23:42:59.496Z,4.10
2019-01-11T23:45:30.926Z,4.83
2019-01-11T23:48:00.107Z,5.43
2019-01-11T23:50:30.821Z,5.27
2019-01-11T23:53:00.395Z,5.70
2019-01-11T23:55:29.611Z,4.50
2019-01-11T23:57:59.076Z,6.33
